Flight Track Log - Related Links

Times and Time Zones

All times are in EDT time to prevent confusion due to time zone crossing. See the ASQ5605 flight status page for this flight to view local times or setup timezone preferences in your user account.

Time Position Orientation Groundspeed Altitude Reporting Facility
EDT Latitude Longitude Course Direction KTS MPH feet Rate Location/Type
Thu 07:07:52 AM 44.8136 -68.9811 257° West 218 251 5,000  Level Boston Center
Thu 07:08:50 AM 44.7978 -69.0758 257° West 239 275 8,200 2,723 Climbing Boston Center
Thu 07:09:51 AM 44.7817 -69.1703 257° West 245 282 10,400 1,623 Climbing Boston Center
Thu 07:10:52 AM 44.7581 -69.2914 255° West 268 308 11,500 1,240 Climbing Boston Center
Thu 07:11:52 AM 44.7322 -69.4214 254° West 312 359 12,900 1,590 Climbing Boston Center
Thu 07:12:00 AM 44.7114 -69.6771 257° West  Level Estimated
Thu 07:12:49 AM 44.7044 -69.5572 254° West 348 400 14,600  Level Boston Center
Thu 07:13:50 AM 44.6767 -69.6958 254° West 366 421 16,300 1,623 Climbing Boston Center
Thu 07:14:51 AM 44.6508 -69.8372 256° West 376 433 17,900 1,866 Climbing Boston Center
Thu 07:15:49 AM 44.6206 -69.9814 254° West 381 438 20,000 1,850 Climbing Boston Center
Thu 07:16:51 AM 44.5939 -70.1050 253° West 381 438 21,600 1,512 Climbing Boston Center
Thu 07:17:52 AM 44.5656 -70.2461 254° West 381 438 23,100 1,240 Climbing Boston Center
Thu 07:18:52 AM 44.5369 -70.3869 254° West 376 433 24,100 1,017 Climbing Boston Center
Thu 07:19:50 AM 44.5081 -70.5306 254° West 389 448 25,100 1,008 Climbing Boston Center
Thu 07:20:51 AM 44.4750 -70.6828 253° West 394 453 26,100 984 Climbing Boston Center
Thu 07:21:52 AM 44.4439 -70.8292 253° West 399 459 27,100 1,008 Climbing Boston Center
Thu 07:22:50 AM 44.4125 -70.9842 254° West 404 465 28,100 1,017 Climbing Boston Center
Thu 07:23:50 AM 44.3811 -71.1331 254° West 404 465 29,100 984 Climbing Boston Center
Thu 07:24:52 AM 44.3492 -71.2847 254° West 404 465 30,100 1,000 Climbing Boston Center
Thu 07:25:50 AM 44.3133 -71.4392 252° West 404 465 31,100 1,026 Climbing Boston Center
Thu 07:26:49 AM 44.2831 -71.5875 254° West 404 465 32,100 992 Climbing Boston Center
Thu 07:27:51 AM 44.2489 -71.7358 252° West 404 465 33,100 927 Climbing Boston Center
Thu 07:28:52 AM 44.2100 -71.9014 252° West 404 465 34,000 454 Climbing Boston Center
Thu 07:29:50 AM 44.1836 -72.0550 257° West 404 465 34,000  Level Boston Center
Thu 07:30:52 AM 44.1486 -72.2028 252° West 404 465 34,000  Level Boston Center
Thu 07:31:49 AM 44.1092 -72.3592 251° West 414 476 34,000  Level Boston Center
Thu 07:32:50 AM 44.0781 -72.4950 252° West 420 483 34,000  Level Boston Center
Thu 07:33:50 AM 44.0422 -72.6481 252° West 421 484 34,000  Level Boston Center
Thu 07:34:50 AM 44.0067 -72.8067 253° West 421 484 34,000  Level Boston Center
Thu 07:35:51 AM 43.9725 -72.9594 253° West 427 491 34,000  Level Boston Center
Thu 07:36:51 AM 43.9342 -73.1147 251° West 422 486 34,000  Level Boston Center
Thu 07:37:52 AM 43.8978 -73.2697 252° West 422 486 34,000  Level Boston Center
Thu 07:38:52 AM 43.8633 -73.4250 253° West 422 486 34,000  Level Boston Center
Thu 07:39:52 AM 43.8264 -73.5797 252° West 422 486 34,000  Level Boston Center
Thu 07:40:52 AM 43.7831 -73.7486 250° West 422 486 34,000  Level Boston Center
Thu 07:41:50 AM 43.7456 -73.9058 252° West 422 486 34,000  Level Boston Center
Thu 07:42:52 AM 43.7103 -74.0600 252° West 422 486 34,000  Level Boston Center
Thu 07:43:51 AM 43.6706 -74.2139 250° West 422 486 34,000  Level Boston Center
Thu 07:44:52 AM 43.6325 -74.3678 251° West 427 491 34,000  Level Boston Center
Thu 07:45:49 AM 43.5944 -74.5242 251° West 427 491 34,000  Level Boston Center
Thu 07:46:52 AM 43.5558 -74.6806 251° West 427 491 34,000  Level Boston Center
Thu 07:47:50 AM 43.5175 -74.8336 251° West 427 491 34,000  Level Boston Center
Thu 07:48:50 AM 43.4481 -74.9597 233° Southwest 410 472 34,000  Level Boston Center
Thu 07:49:52 AM 43.3603 -75.0589 219° Southwest 402 463 34,000  Level Boston Center
Thu 07:50:50 AM 43.2703 -75.1661 221° Southwest 409 471 34,000  Level Boston Center
Thu 07:51:50 AM 43.1950 -75.2653 224° Southwest 422 486 34,000  Level Boston Center
Thu 07:52:51 AM 43.1333 -75.3936 237° Southwest 422 486 34,000  Level Boston Center
Thu 07:53:49 AM 43.1294 -75.5414 268° West 385 443 34,000  Level Boston Center
Thu 07:54:52 AM 43.1375 -75.6953 274° West 390 449 34,000  Level Boston Center
Thu 07:55:50 AM 43.1456 -75.8525 274° West 402 463 34,000  Level Boston Center
Thu 07:56:52 AM 43.1533 -76.0064 274° West 407 468 34,000  Level Boston Center
Thu 07:58:36 AM 43.1531 -76.2872 270° West 420 483 34,000  Level Cleveland Center
Thu 07:59:38 AM 43.1383 -76.4458 263° West 420 483 34,000  Level Cleveland Center
Thu 08:00:40 AM 43.1256 -76.6042 264° West 421 484 34,000  Level Cleveland Center
Thu 08:01:41 AM 43.1100 -76.7825 263° West 417 480 34,000  Level Cleveland Center
Thu 08:02:43 AM 43.0953 -76.9403 263° West 420 483 34,000  Level Cleveland Center
Thu 08:03:45 AM 43.0811 -77.0983 263° West 420 483 34,000  Level Cleveland Center
Thu 08:04:47 AM 43.0669 -77.2553 263° West 420 483 34,000  Level Cleveland Center
Thu 08:05:49 AM 43.0519 -77.4128 263° West 421 484 34,000  Level Cleveland Center
Thu 08:06:50 AM 43.0344 -77.6006 263° West 420 483 34,000  Level Cleveland Center
Thu 08:07:52 AM 43.0189 -77.7575 262° West 422 486 34,000  Level Cleveland Center
Thu 08:08:54 AM 43.0033 -77.9150 262° West 422 486 34,000  Level Cleveland Center
Thu 08:09:56 AM 42.9878 -78.0728 262° West 424 488 34,000  Level Cleveland Center
Thu 08:10:57 AM 42.9719 -78.2325 262° West 429 494 34,000  Level Cleveland Center
Thu 08:11:59 AM 42.9514 -78.4244 262° West 428 493 34,000  Level Cleveland Center
Thu 08:13:01 AM 42.9353 -78.5828 262° West 425 489 34,000  Level Cleveland Center
Thu 08:14:03 AM 42.9153 -78.7419 260° West 426 490 34,000  Level Cleveland Center
Thu 08:15:04 AM 42.8928 -78.8986 259° West 424 488 34,000  Level Cleveland Center
Thu 08:16:06 AM 42.8703 -79.0550 259° West 422 486 34,000  Level Cleveland Center
Thu 08:17:08 AM 42.8467 -79.2125 258° West 425 489 34,000 -290 Level Cleveland Center
Thu 08:18:10 AM 42.8178 -79.4000 258° West 424 488 33,400 -484 Descending Cleveland Center
Thu 08:19:12 AM 42.7947 -79.5569 259° West 424 488 33,000 -339 Descending Cleveland Center
Thu 08:20:14 AM 42.7708 -79.7111 258° West 418 481 32,700 -484 Descending Cleveland Center
Thu 08:21:16 AM 42.7497 -79.8706 260° West 433 498 32,000 -339 Descending Cleveland Center
Thu 08:22:18 AM 42.7419 -80.0289 266° West 432 497 32,000  Level Cleveland Center
Thu 08:23:20 AM 42.7347 -80.2175 267° West 426 490 32,000  Level Cleveland Center
Thu 08:24:22 AM 42.7267 -80.3803 266° West 428 493 32,000  Level Cleveland Center
Thu 08:25:24 AM 42.7197 -80.5414 267° West 426 490 32,000 -677 Level Cleveland Center
Thu 08:26:26 AM 42.7133 -80.7044 267° West 429 494 30,600 -1,839 Descending Cleveland Center
Thu 08:27:28 AM 42.7067 -80.8683 267° West 430 495 28,200 -2,081 Descending Cleveland Center
Thu 08:28:30 AM 42.6911 -81.0211 262° West 410 472 26,300 -1,597 Descending Cleveland Center
Thu 08:29:32 AM 42.6742 -81.1678 261° West 394 453 24,900 -1,452 Descending Cleveland Center
Thu 08:30:34 AM 42.6544 -81.3378 261° West 390 449 23,300 -1,403 Descending Cleveland Center
Thu 08:31:36 AM 42.6372 -81.4842 261° West 389 448 22,000 -1,258 Descending Cleveland Center
Thu 08:32:38 AM 42.6208 -81.6244 261° West 379 436 20,700 -1,258 Descending Cleveland Center
Thu 08:33:40 AM 42.6028 -81.7642 260° West 374 430 19,400 -1,306 Descending Cleveland Center
Thu 08:34:42 AM 42.5867 -81.9072 261° West 365 420 18,000 -1,210 Descending Cleveland Center
Thu 08:35:44 AM 42.5697 -82.0381 260° West 355 409 16,900 -1,161 Descending Cleveland Center
Thu 08:36:46 AM 42.5542 -82.1667 261° West 349 402 15,600 -1,314 Descending Cleveland Center
Thu 08:38:01 AM 42.5344 -82.3433 261° West 343 395 13,900 -1,259 Descending Cleveland Center
Thu 08:38:07 AM 42.5319 -82.3514 247° West 342 394 13,900 -857 Level Cleveland Center
Thu 08:38:50 AM 42.5225 -82.4192 259° West 340 391 13,200 -1,180 Descending Cleveland Center
Thu 08:39:08 AM 42.5172 -82.4714 262° West 323 372 12,700 -911 Descending Cleveland Center
Thu 08:40:09 AM 42.4950 -82.5789 254° West 260 299 12,000 -792 Descending Cleveland Center
Thu 08:40:54 AM 42.4753 -82.6303 243° Southwest 247 284 11,300 -984 Descending Cleveland Center
Thu 08:41:10 AM 42.4625 -82.6539 234° Southwest 227 261 11,000 -1,065 Descending Cleveland Center
Thu 08:41:56 AM 42.4314 -82.6953 224° Southwest 233 268 10,200 -1,082 Descending Cleveland Center
Thu 08:42:11 AM 42.4181 -82.7186 232° Southwest 231 266 9,900 -1,247 Descending Cleveland Center
Thu 08:43:13 AM 42.3739 -82.7806 226° Southwest 233 268 8,600 -1,211 Descending Cleveland Center
Thu 08:44:00 AM 42.3697 -82.8381 264° West 233 268 7,700 -1,377 Descending Cleveland Center
Thu 08:44:14 AM 42.3714 -82.8736 274° West 235 270 7,200 -667 Descending Cleveland Center
Thu 08:45:03 AM 42.3753 -82.9239 276° West 232 267 7,000 -197 Descending Cleveland Center
Thu 08:45:15 AM 42.3931 -82.9469 316° Northwest 209 241 7,000 -290 Level Cleveland Center
Thu 08:46:05 AM 42.4339 -82.9700 337° Northwest 215 247 6,700 -492 Descending Cleveland Center
Thu 08:46:16 AM 42.4475 -82.9742 347° North 219 252 6,500 -677 Descending Cleveland Center
Thu 08:47:07 AM 42.4783 -83.0153 315° West 215 247 6,000 -492 Descending Cleveland Center
Thu 08:47:17 AM 42.4892 -83.0336 309° West 202 232 6,000  Level Cleveland Center
Thu 08:48:19 AM 42.4903 -83.1044 271° West 175 201 6,000  Level Cleveland Center
Thu 08:49:11 AM 42.4731 -83.1406 237° Southwest 175 201 6,000  Level Cleveland Center
Thu 08:49:20 AM 42.4614 -83.1542 221° Southwest 174 200 6,000 -484 Level Cleveland Center
Thu 08:50:13 AM 42.4317 -83.1756 208° Southwest 174 200 5,500 -885 Descending Cleveland Center
Thu 08:50:21 AM 42.4169 -83.1878 212° Southwest 179 206 5,100 -1,258 Descending Cleveland Center
Thu 08:51:15 AM 42.3794 -83.2147 208° Southwest 177 204 4,200 -984 Descending Cleveland Center
Thu 08:51:22 AM 42.3747 -83.2186 211° Southwest 168 193 4,100 -870 Descending Cleveland Center
Thu 08:52:24 AM 42.3322 -83.2522 210° Southwest 175 201 3,200 -927 Descending Cleveland Center
Thu 08:53:25 AM 42.2881 -83.2828 207° Southwest 169 194 2,200 -885 Descending Cleveland Center
Thu 08:54:26 AM 42.2525 -83.3089 209° Southwest 135 155 1,400 -610 Descending Cleveland Center
Thu 08:55:23 AM 42.2228 -83.3306 208° Southwest 144 166 1,000 -421 Descending Cleveland Center
Thu 08:57:00 AM 42.2000 -83.3500 246° West  Level FlightAware Approximate
Thu 09:04:00 AM 42.2124 -83.3534 246° West  Level Estimated

Login

Don't have an account? Register now (free) for customized features, flight alerts, and more!